Kalgoorlie-Boulder, Australia

11:35 AM AWST am 24. Februar 2017 (GMT +0800)
Kalgoorlie-Boulder | | Change Station

Höhe 1204 ft 30.78 °S, 121.45 °E | Updated 35 minutes ago

Clear
Heiter
77 °F
gefühlte 77 °F
N
15
Wind Wechselnd Wind aus Ost-Nordost

Heute
Max. -- | schwach -- °F
--% Regenrisiko
Gestern
Max. -- | schwach -- °F
Precip. -- inch
Druck 30.27 inch
Sichtweite 6.2 Meilen
Wolken
Taupunkt 50 °F
Feuchtigkeit 39%
Regen 0.00 inch
Schneehöhe Nicht verfügbar..
5:40 AM 6:33 PM
Letztes Viertel, 7% visible
METAR YPKG 240300Z AUTO 06013KT 9999 // NCD 25/10 Q1025
Druck 30.27 inch
Sichtweite 6.2 Meilen
Wolken
Taupunkt 50 °F
Feuchtigkeit 39%
Regen 0.00 inch
Schneehöhe Nicht verfügbar..
5:40 AM 6:33 PM
Letztes Viertel, 7% visible
METAR YPKG 240300Z AUTO 06013KT 9999 // NCD 25/10 Q1025

Get Your Daily Forecast Email!

Thanks for signing up!

Be on the lookout for a verification email in your inbox.

You'll start receiving the daily forecast at 8 AM.

×

10-Day Weather Forecast

×

Almanac

Astronomie

Feb. 24, 2017 Aufgang Untergang
Genaue Zeit
Bürgerliche Dämmerung
Nautische Dämmerung
Astronomische Dämmerung
Mond
Länge des sichtbaren Lichts
Tageslänge
Tomorrow will be .
, % of the Moon is Illuminated

Heutige Rekorde

Country Highs Country Lows

Community

WunderPhotos

Upload Photos

1,962,540 Fotos hochgeladen!

WunderBlog® & News

Nearby

Luftqualität

  Luftqualität LQ Index Schadstoff
Not available.

Schneehöhe

Station Depth Höhe

Erdbebenaktivität

Stadt Distance Mag. Time & Date
Minimum magnitude displayed is 2.5.

küstennahe Wassertemperaturen

Ort Temperatur

Stations

Wetterstationen in der Umgebung

Stationsstandort Temp. Windchill Taupunkt Feuchtigkeit Wind Precip. Höhe Aktualisiert Art